Time;durP1;ratioP1;P1;durP2;ratioP2;P2;SDS_P1;SDS_P2;PMS_P1;PMS_P2;Temp;Humidity;BMP_temperature;BMP_pressure;BME280_temperature;BME280_humidity;BME280_pressure;Samples;Min_cycle;Max_cycle;Signal;HPM_P1;HPM_P2
2023/01/13 00:00:50;;;;;;;;;;;;;;;11.28;42.86;99461.13;4469812;32;34067;-82
2023/01/13 00:03:17;;;;;;;;;;;;;;;11.32;42.92;99465.50;4483806;32;34945;-90
2023/01/13 00:05:45;;;;;;;;;;;;;;;11.59;42.50;99465.06;4483982;32;33475;-85
2023/01/13 00:08:12;;;;;;;;;;;;;;;11.47;42.68;99470.06;4483727;31;34273;-90
2023/01/13 00:10:39;;;;;;;;;;;;;;;11.43;42.63;99461.34;4483257;32;34273;-88
2023/01/13 00:13:07;;;;;;;;;;;;;;;11.00;43.39;99464.19;4483830;32;34935;-82
2023/01/13 00:15:34;;;;;;;;;;;;;;;11.13;43.17;99469.56;4483538;32;33554;-88
2023/01/13 00:18:02;;;;;;;;;;;;;;;11.63;42.23;99466.84;4483461;32;34192;-88
2023/01/13 00:20:29;;;;;;;;;;;;;;;11.35;42.73;99467.28;4483231;32;33818;-81
2023/01/13 00:22:57;;;;;;;;;;;;;;;11.18;42.92;99465.34;4483414;32;33904;-83
2023/01/13 00:25:25;;;;;;;;;;;;;;;10.31;44.71;99465.59;4483539;32;33171;-86
2023/01/13 00:27:52;;;;;;;;;;;;;;;11.17;42.89;99461.00;4483892;32;34869;-84
2023/01/13 00:30:19;;;;;;;;;;;;;;;11.03;43.29;99452.13;4469286;32;35290;-90
2023/01/13 00:32:47;;;;;;;;;;;;;;;11.05;43.21;99454.72;4483532;32;34950;-83
2023/01/13 00:35:14;;;;;;;;;;;;;;;11.00;43.19;99454.66;4483151;32;33029;-90
2023/01/13 00:37:41;;;;;;;;;;;;;;;10.93;43.21;99461.47;4483102;32;33856;-85
2023/01/13 00:40:09;;;;;;;;;;;;;;;11.03;42.99;99464.22;4484213;32;35026;-82
2023/01/13 00:45:23;;;;;;;;;;;;;;;11.16;42.75;99456.62;4483338;32;34182;-89
2023/01/13 00:47:50;;;;;;;;;;;;;;;11.05;42.79;99462.50;4483131;32;33789;-87
2023/01/13 00:50:17;;;;;;;;;;;;;;;10.89;43.08;99459.69;4482327;32;34010;-89
2023/01/13 00:52:45;;;;;;;;;;;;;;;11.17;42.62;99453.22;4482457;32;34892;-82
2023/01/13 00:55:12;;;;;;;;;;;;;;;11.07;43.01;99451.31;4480585;32;33740;-90
2023/01/13 00:57:40;;;;;;;;;;;;;;;11.30;42.76;99446.47;4479393;32;34042;-82
2023/01/13 01:00:08;;;;;;;;;;;;;;;11.03;43.14;99454.72;4480727;32;34420;-82
2023/01/13 01:02:35;;;;;;;;;;;;;;;11.31;42.55;99445.59;4463602;32;34768;-82
2023/01/13 01:05:03;;;;;;;;;;;;;;;11.24;42.77;99446.38;4482148;32;33348;-81
2023/01/13 01:07:30;;;;;;;;;;;;;;;11.25;42.96;99447.22;4480889;32;34108;-86
2023/01/13 01:09:58;;;;;;;;;;;;;;;10.82;43.95;99444.00;4483861;32;32979;-91
2023/01/13 01:12:25;;;;;;;;;;;;;;;10.91;44.06;99438.94;4482518;32;34240;-81
2023/01/13 01:14:52;;;;;;;;;;;;;;;11.08;43.81;99431.44;4484088;32;33075;-86
2023/01/13 01:17:20;;;;;;;;;;;;;;;11.16;43.68;99427.22;4483145;32;34837;-88
2023/01/13 01:19:47;;;;;;;;;;;;;;;11.37;43.19;99430.13;4482558;32;33947;-89
2023/01/13 01:22:14;;;;;;;;;;;;;;;11.27;43.50;99433.44;4483267;32;34059;-92
2023/01/13 01:24:42;;;;;;;;;;;;;;;11.31;43.57;99431.75;4480958;32;33531;-82
2023/01/13 01:27:09;;;;;;;;;;;;;;;11.35;43.47;99429.22;4483594;32;35021;-86
2023/01/13 01:29:36;;;;;;;;;;;;;;;11.49;43.11;99429.41;4483121;32;35548;-90
2023/01/13 01:32:04;;;;;;;;;;;;;;;11.43;43.11;99427.59;4483257;32;34243;-86
2023/01/13 01:34:31;;;;;;;;;;;;;;;11.61;42.73;99429.56;4483666;32;34254;-86
2023/01/13 01:36:59;;;;;;;;;;;;;;;11.73;42.51;99415.00;4483016;32;34172;-83
2023/01/13 01:39:26;;;;;;;;;;;;;;;11.39;43.06;99412.84;4483282;32;34430;-91
2023/01/13 01:44:51;;;;;;;;;;;;;;;11.56;42.92;99413.06;4483267;32;34203;-83
2023/01/13 01:47:18;;;;;;;;;;;;;;;11.66;42.84;99406.25;4453411;32;34333;-83
2023/01/13 01:49:46;;;;;;;;;;;;;;;11.90;42.31;99406.59;4477321;32;34181;-91
2023/01/13 01:52:15;;;;;;;;;;;;;;;11.62;42.68;99410.53;4483096;32;33828;-85
2023/01/13 01:54:57;;;;;;;;;;;;;;;11.58;42.73;99413.09;4482038;32;33304;-81
2023/01/13 01:57:45;;;;;;;;;;;;;;;11.69;42.59;99406.28;4476294;32;34189;-84
2023/01/13 02:00:13;;;;;;;;;;;;;;;11.75;42.16;99405.50;4470339;32;34057;-87
2023/01/13 02:02:41;;;;;;;;;;;;;;;11.66;42.22;99396.72;4468607;32;35192;-82
2023/01/13 02:05:08;;;;;;;;;;;;;;;11.55;42.46;99398.31;4482720;32;33339;-81
2023/01/13 02:07:36;;;;;;;;;;;;;;;11.59;42.65;99394.03;4482883;32;34161;-91
2023/01/13 02:10:05;;;;;;;;;;;;;;;11.47;42.89;99396.50;4469101;32;34141;-82
2023/01/13 02:12:32;;;;;;;;;;;;;;;11.61;42.87;99393.22;4468472;32;33906;-82
2023/01/13 02:15:07;;;;;;;;;;;;;;;11.79;42.68;99394.31;4469000;32;33453;-81
2023/01/13 02:17:36;;;;;;;;;;;;;;;11.74;42.88;99399.41;4469010;32;34989;-82
2023/01/13 02:20:18;;;;;;;;;;;;;;;11.88;42.76;99386.63;4483059;32;35341;-81
2023/01/13 02:22:55;;;;;;;;;;;;;;;11.93;42.65;99388.44;4483327;32;34353;-81
2023/01/13 02:25:32;;;;;;;;;;;;;;;12.01;42.54;99388.53;4476290;32;33430;-86
2023/01/13 02:28:20;;;;;;;;;;;;;;;11.90;42.94;99379.75;4482631;32;35022;-84
2023/01/13 02:33:53;;;;;;;;;;;;;;;11.90;43.09;99377.16;4483399;32;35302;-94
2023/01/13 02:36:26;;;;;;;;;;;;;;;11.96;42.98;99384.97;4484624;32;33278;-82
2023/01/13 02:38:55;;;;;;;;;;;;;;;12.01;42.83;99385.94;4483784;32;34238;-82
2023/01/13 02:44:13;;;;;;;;;;;;;;;12.04;42.41;99377.25;4484862;32;34046;-82
2023/01/13 02:46:50;;;;;;;;;;;;;;;12.03;42.51;99386.78;4469837;32;34262;-82
2023/01/13 02:49:23;;;;;;;;;;;;;;;11.97;42.76;99384.16;4485023;32;33967;-81
2023/01/13 02:51:51;;;;;;;;;;;;;;;11.76;42.78;99376.06;4470468;32;35238;-82
2023/01/13 02:54:20;;;;;;;;;;;;;;;11.99;42.58;99376.34;4469946;32;34947;-81
2023/01/13 02:56:47;;;;;;;;;;;;;;;11.82;42.79;99370.94;4470274;32;33895;-82
2023/01/13 02:59:15;;;;;;;;;;;;;;;11.84;42.74;99361.47;4470345;32;34234;-82
2023/01/13 03:01:42;;;;;;;;;;;;;;;11.83;42.88;99362.31;4470247;32;35317;-83
2023/01/13 03:04:13;;;;;;;;;;;;;;;11.91;42.93;99355.50;4484300;32;34250;-82
2023/01/13 03:06:45;;;;;;;;;;;;;;;12.00;42.77;99360.78;4475429;32;34136;-94
2023/01/13 03:09:18;;;;;;;;;;;;;;;11.83;42.73;99362.31;4464195;32;34315;-92
2023/01/13 03:12:08;;;;;;;;;;;;;;;12.07;42.28;99354.78;4468283;32;35345;-92
2023/01/13 03:14:39;;;;;;;;;;;;;;;12.03;42.41;99352.16;4471571;32;34068;-82
2023/01/13 03:17:19;;;;;;;;;;;;;;;11.79;42.82;99347.53;4467600;32;32850;-85
2023/01/13 03:20:06;;;;;;;;;;;;;;;11.82;42.99;99353.66;4469662;32;34083;-81
2023/01/13 03:22:37;;;;;;;;;;;;;;;12.02;42.51;99356.47;4469792;32;33786;-80
2023/01/13 03:25:11;;;;;;;;;;;;;;;11.82;42.65;99357.94;4470078;32;35088;-91
2023/01/13 03:27:44;;;;;;;;;;;;;;;11.66;43.03;99354.31;4468730;32;33607;-82
2023/01/13 03:30:14;;;;;;;;;;;;;;;11.51;43.37;99349.81;4463343;32;34114;-82
2023/01/13 03:32:42;;;;;;;;;;;;;;;11.59;43.26;99350.78;4484753;32;34864;-82
2023/01/13 03:35:12;;;;;;;;;;;;;;;11.41;43.60;99345.37;4470372;32;34115;-83
2023/01/13 03:37:41;;;;;;;;;;;;;;;11.48;43.67;99334.22;4465849;32;33515;-92
2023/01/13 03:40:13;;;;;;;;;;;;;;;11.68;43.30;99348.28;4469741;32;33971;-91
2023/01/13 03:44:20;;;;;;;;;;;;;;;11.51;43.63;99334.22;4470252;32;34260;-88
2023/01/13 03:45:28;;;;;;;;;;;;;;;11.31;44.24;99333.13;4483645;32;34300;-81
2023/01/13 03:47:56;;;;;;;;;;;;;;;11.60;43.68;99347.34;4470279;32;33110;-89
2023/01/13 03:50:25;;;;;;;;;;;;;;;11.81;43.28;99335.44;4484036;32;33667;-81
2023/01/13 03:53:16;;;;;;;;;;;;;;;11.87;43.02;99339.00;4484033;32;34105;-80
2023/01/13 03:55:46;;;;;;;;;;;;;;;11.75;43.07;99343.19;4457004;32;34713;-82
2023/01/13 03:58:20;;;;;;;;;;;;;;;11.77;43.16;99336.25;4470061;32;33517;-83
2023/01/13 04:00:54;;;;;;;;;;;;;;;11.95;43.02;99341.69;4483782;32;34834;-85
2023/01/13 04:03:26;;;;;;;;;;;;;;;11.86;43.14;99342.47;4470169;32;32682;-84
2023/01/13 04:05:55;;;;;;;;;;;;;;;11.93;43.01;99339.06;4469305;32;34279;-81
2023/01/13 04:08:26;;;;;;;;;;;;;;;11.82;43.25;99339.75;4470487;32;33582;-83
2023/01/13 04:10:59;;;;;;;;;;;;;;;11.88;43.18;99343.34;4469450;32;35111;-82
2023/01/13 04:13:27;;;;;;;;;;;;;;;11.92;43.16;99346.84;4483437;32;34458;-92
2023/01/13 04:15:55;;;;;;;;;;;;;;;12.02;43.05;99342.62;4469697;32;34760;-82
2023/01/13 04:18:23;;;;;;;;;;;;;;;12.00;43.16;99347.78;4475873;32;34130;-86
2023/01/13 04:20:51;;;;;;;;;;;;;;;11.91;43.21;99345.09;4473430;32;34053;-93
2023/01/13 04:23:19;;;;;;;;;;;;;;;11.36;44.20;99344.44;4458270;32;34267;-81
2023/01/13 04:25:46;;;;;;;;;;;;;;;11.82;43.63;99342.34;4477966;32;34070;-82
2023/01/13 04:28:14;;;;;;;;;;;;;;;11.96;43.38;99343.41;4460811;32;34222;-82
2023/01/13 04:30:41;;;;;;;;;;;;;;;11.94;43.49;99345.13;4473686;32;34118;-82
2023/01/13 04:33:09;;;;;;;;;;;;;;;11.79;43.79;99351.00;4477167;32;34400;-81
2023/01/13 04:35:36;;;;;;;;;;;;;;;11.92;43.43;99349.44;4469341;32;34377;-91
2023/01/13 04:38:06;;;;;;;;;;;;;;;12.02;43.28;99345.22;4473010;32;33388;-82
2023/01/13 04:40:33;;;;;;;;;;;;;;;12.03;43.31;99349.53;4460585;32;34104;-89
2023/01/13 04:43:00;;;;;;;;;;;;;;;12.02;43.39;99348.69;4477929;32;35256;-81
2023/01/13 04:45:28;;;;;;;;;;;;;;;12.03;43.22;99350.41;4481930;32;34126;-86
2023/01/13 04:47:55;;;;;;;;;;;;;;;11.95;43.43;99346.00;4467141;32;33414;-81
2023/01/13 04:50:22;;;;;;;;;;;;;;;11.97;43.32;99350.38;4473631;32;33479;-92
2023/01/13 04:52:50;;;;;;;;;;;;;;;11.80;43.48;99346.69;4471860;32;35264;-88
2023/01/13 04:55:17;;;;;;;;;;;;;;;11.79;43.51;99352.75;4460225;32;33780;-93
2023/01/13 04:57:45;;;;;;;;;;;;;;;11.97;43.02;99347.78;4466972;32;32898;-81
2023/01/13 05:00:13;;;;;;;;;;;;;;;11.99;43.02;99346.03;4470005;32;34313;-87
2023/01/13 05:02:40;;;;;;;;;;;;;;;11.94;43.13;99347.75;4465423;32;34407;-81
2023/01/13 05:05:08;;;;;;;;;;;;;;;11.89;43.17;99352.91;4479393;32;34254;-81
2023/01/13 05:07:35;;;;;;;;;;;;;;;12.08;42.65;99348.72;4467633;32;34317;-86
2023/01/13 05:10:02;;;;;;;;;;;;;;;12.07;42.73;99352.19;4467783;32;34862;-80
2023/01/13 05:18:02;;;;;;;;;;;;;;;11.99;42.48;99359.03;4474653;32;32995;-84
2023/01/13 05:20:29;;;;;;;;;;;;;;;11.75;42.83;99364.81;4480384;32;33964;-95
2023/01/13 05:25:44;;;;;;;;;;;;;;;12.03;42.39;99371.19;4480370;32;35109;-82
2023/01/13 05:28:13;;;;;;;;;;;;;;;11.97;42.49;99378.06;4468859;32;33154;-94
2023/01/13 05:30:42;;;;;;;;;;;;;;;11.83;42.80;99378.78;4477956;32;35297;-82
2023/01/13 05:33:09;;;;;;;;;;;;;;;11.88;42.86;99373.66;4481749;32;34240;-91
2023/01/13 05:35:40;;;;;;;;;;;;;;;12.00;42.64;99381.56;4480115;32;33992;-91
2023/01/13 05:38:07;;;;;;;;;;;;;;;12.05;42.48;99379.91;4483198;32;34222;-93
2023/01/13 05:43:23;;;;;;;;;;;;;;;12.22;41.68;99380.06;4474725;32;34832;-85
2023/01/13 05:45:53;;;;;;;;;;;;;;;11.38;43.27;99374.75;4464198;32;34289;-90
2023/01/13 05:48:20;;;;;;;;;;;;;;;11.39;43.27;99370.44;4456312;32;33409;-94
2023/01/13 05:50:52;;;;;;;;;;;;;;;11.27;43.52;99370.28;4478105;32;34165;-82
2023/01/13 05:53:20;;;;;;;;;;;;;;;11.49;43.23;99356.72;4449470;32;35885;-81
2023/01/13 05:55:48;;;;;;;;;;;;;;;11.64;42.74;99366.44;4451023;32;34476;-83
2023/01/13 05:58:16;;;;;;;;;;;;;;;11.77;42.01;99370.03;4460634;32;33558;-92
2023/01/13 06:00:43;;;;;;;;;;;;;;;11.52;42.50;99363.69;4466619;32;34082;-82
2023/01/13 06:03:11;;;;;;;;;;;;;;;11.15;42.86;99361.47;4464619;32;34078;-83
2023/01/13 06:05:38;;;;;;;;;;;;;;;11.27;43.03;99365.09;4466063;32;33948;-89
2023/01/13 06:08:06;;;;;;;;;;;;;;;11.42;42.45;99366.16;4451719;32;32872;-82
2023/01/13 06:10:34;;;;;;;;;;;;;;;11.25;42.63;99366.78;4450774;32;34232;-88
2023/01/13 06:13:01;;;;;;;;;;;;;;;11.20;42.93;99362.41;4457797;32;34383;-86
2023/01/13 06:15:28;;;;;;;;;;;;;;;11.42;42.62;99370.47;4467033;32;35001;-82
2023/01/13 06:17:56;;;;;;;;;;;;;;;11.30;42.52;99360.81;4467407;32;33519;-82
2023/01/13 06:20:23;;;;;;;;;;;;;;;11.45;42.18;99366.19;4467300;32;33920;-81
2023/01/13 06:22:51;;;;;;;;;;;;;;;11.22;42.51;99367.63;4466654;32;35245;-80
2023/01/13 06:25:20;;;;;;;;;;;;;;;10.88;42.91;99371.47;4466398;32;34208;-94
2023/01/13 06:27:48;;;;;;;;;;;;;;;10.96;43.02;99364.69;4465958;32;33411;-93
2023/01/13 06:30:16;;;;;;;;;;;;;;;11.00;42.93;99369.06;4465569;32;34136;-86
2023/01/13 06:32:45;;;;;;;;;;;;;;;10.96;43.30;99369.88;4466029;32;35039;-83
2023/01/13 06:35:14;;;;;;;;;;;;;;;11.18;43.03;99368.44;4465941;32;34354;-90
2023/01/13 06:37:42;;;;;;;;;;;;;;;10.90;43.70;99375.81;4466101;32;34020;-86
2023/01/13 06:40:10;;;;;;;;;;;;;;;11.10;43.57;99373.53;4467403;32;35227;-94
2023/01/13 06:45:23;;;;;;;;;;;;;;;11.22;43.69;99383.22;4463688;32;34453;-82
2023/01/13 06:47:50;;;;;;;;;;;;;;;11.34;43.62;99385.09;4465914;32;33751;-82
2023/01/13 06:50:17;;;;;;;;;;;;;;;11.15;44.45;99379.66;4467196;32;34816;-83
2023/01/13 06:52:45;;;;;;;;;;;;;;;10.27;47.12;99393.81;4465990;32;35894;-91
2023/01/13 06:55:12;;;;;;;;;;;;;;;9.93;48.00;99393.19;4466468;32;34130;-95
2023/01/13 06:58:05;;;;;;;;;;;;;;;10.57;46.52;99386.56;4466778;32;34422;-87
2023/01/13 07:00:38;;;;;;;;;;;;;;;10.98;45.85;99396.69;4459193;32;34201;-94
2023/01/13 07:03:10;;;;;;;;;;;;;;;10.67;46.47;99398.81;4466990;32;34997;-91
2023/01/13 07:05:38;;;;;;;;;;;;;;;10.62;46.32;99403.06;4467306;32;34319;-95
2023/01/13 07:08:05;;;;;;;;;;;;;;;10.97;45.94;99392.34;4467024;32;34060;-88
2023/01/13 07:10:33;;;;;;;;;;;;;;;11.39;45.10;99402.44;4467471;32;34954;-94
2023/01/13 07:15:53;;;;;;;;;;;;;;;11.14;45.56;99403.84;4467539;32;33830;-93
2023/01/13 07:18:21;;;;;;;;;;;;;;;11.41;45.15;99392.97;4467754;32;33499;-93
2023/01/13 07:20:52;;;;;;;;;;;;;;;11.40;45.36;99385.16;4469317;32;34107;-87
2023/01/13 07:23:20;;;;;;;;;;;;;;;11.25;45.56;99387.53;4469353;32;34102;-90
2023/01/13 07:25:47;;;;;;;;;;;;;;;9.20;50.76;99395.12;4469503;32;35281;-94
2023/01/13 07:28:15;;;;;;;;;;;;;;;8.91;51.53;99402.25;4469301;32;33801;-81
2023/01/13 07:30:42;;;;;;;;;;;;;;;10.10;48.81;99391.75;4469294;32;34019;-93
2023/01/13 07:33:09;;;;;;;;;;;;;;;10.69;47.40;99389.34;4469271;32;34451;-89
2023/01/13 07:35:37;;;;;;;;;;;;;;;10.58;47.76;99384.84;4465589;32;34239;-82
2023/01/13 07:38:05;;;;;;;;;;;;;;;10.68;47.56;99390.22;4469258;32;33434;-82
2023/01/13 07:40:32;;;;;;;;;;;;;;;10.88;47.32;99384.44;4468365;32;33827;-91
2023/01/13 07:45:46;;;;;;;;;;;;;;;11.08;47.15;99395.97;4469079;32;33969;-82
2023/01/13 07:48:13;;;;;;;;;;;;;;;11.22;46.97;99392.72;4468439;32;33294;-82
2023/01/13 07:50:40;;;;;;;;;;;;;;;10.16;48.77;99404.84;4468833;32;34333;-81
2023/01/13 07:53:10;;;;;;;;;;;;;;;9.94;49.49;99408.72;4469704;32;34528;-94
2023/01/13 07:55:43;;;;;;;;;;;;;;;10.26;48.69;99417.97;4468395;32;34909;-82
2023/01/13 07:58:11;;;;;;;;;;;;;;;10.95;47.20;99420.88;4467456;32;34239;-94
2023/01/13 08:00:38;;;;;;;;;;;;;;;11.20;46.79;99419.50;4468405;32;34225;-92
2023/01/13 08:03:06;;;;;;;;;;;;;;;10.93;47.42;99416.50;4468308;32;34303;-85
2023/01/13 08:05:33;;;;;;;;;;;;;;;10.79;47.79;99418.00;4468362;32;34080;-93
2023/01/13 08:08:01;;;;;;;;;;;;;;;10.95;47.29;99425.19;4468551;32;33446;-85
2023/01/13 08:10:28;;;;;;;;;;;;;;;10.42;48.69;99425.19;4468034;32;34085;-83
2023/01/13 08:15:42;;;;;;;;;;;;;;;10.57;48.25;99438.41;4468313;32;35180;-94
2023/01/13 08:18:09;;;;;;;;;;;;;;;10.64;48.22;99432.47;4468434;32;33533;-94
2023/01/13 08:20:36;;;;;;;;;;;;;;;10.91;47.34;99428.56;4468372;32;34690;-94
2023/01/13 08:23:04;;;;;;;;;;;;;;;10.31;48.81;99427.59;4468404;32;35233;-95
2023/01/13 08:25:33;;;;;;;;;;;;;;;9.85;49.89;99430.97;4468201;32;34194;-92
2023/01/13 08:28:00;;;;;;;;;;;;;;;10.00;50.04;99431.31;4468459;32;33552;-82
2023/01/13 08:30:28;;;;;;;;;;;;;;;9.30;51.67;99440.19;4468252;32;34876;-82
2023/01/13 08:32:55;;;;;;;;;;;;;;;9.69;50.47;99445.31;4466285;32;34463;-93
2023/01/13 08:35:22;;;;;;;;;;;;;;;8.19;54.07;99454.69;4468276;32;34889;-82
2023/01/13 08:37:50;;;;;;;;;;;;;;;8.95;52.87;99451.47;4468190;32;33231;-95
2023/01/13 08:40:18;;;;;;;;;;;;;;;9.90;50.17;99447.50;4468027;32;34289;-81
2023/01/13 08:42:45;;;;;;;;;;;;;;;8.82;53.08;99451.13;4443587;32;791582;-81
2023/01/13 08:45:15;;;;;;;;;;;;;;;8.42;54.13;99457.91;4468513;32;33887;-89
2023/01/13 08:47:42;;;;;;;;;;;;;;;7.74;56.37;99466.34;4468361;32;33353;-82
2023/01/13 08:50:11;;;;;;;;;;;;;;;8.71;53.32;99459.53;4468229;32;34099;-81
2023/01/13 08:52:39;;;;;;;;;;;;;;;7.93;56.19;99472.91;4466746;32;34906;-81
2023/01/13 08:55:06;;;;;;;;;;;;;;;7.62;56.61;99478.91;4468257;32;34758;-81
2023/01/13 08:57:33;;;;;;;;;;;;;;;8.17;55.42;99474.41;4468103;32;33369;-81
2023/01/13 09:00:02;;;;;;;;;;;;;;;9.03;52.97;99474.94;4466777;32;34997;-81
2023/01/13 09:02:29;;;;;;;;;;;;;;;9.57;51.46;99474.41;4467698;32;34398;-81
2023/01/13 09:04:59;;;;;;;;;;;;;;;8.68;53.50;99480.13;4467870;32;34031;-81
2023/01/13 09:07:26;;;;;;;;;;;;;;;8.43;54.32;99480.31;4466786;32;33205;-81
2023/01/13 09:09:55;;;;;;;;;;;;;;;8.95;52.97;99476.47;4467784;32;34327;-92
2023/01/13 09:15:09;;;;;;;;;;;;;;;9.47;51.60;99462.13;4467972;32;35233;-82
2023/01/13 09:17:36;;;;;;;;;;;;;;;9.13;52.65;99469.16;4466614;32;34408;-81
2023/01/13 09:20:04;;;;;;;;;;;;;;;9.03;52.69;99462.00;4467717;32;34093;-82
2023/01/13 09:22:34;;;;;;;;;;;;;;;9.77;50.78;99448.94;4467210;32;33937;-82
2023/01/13 09:25:01;;;;;;;;;;;;;;;8.86;53.39;99456.41;4467584;32;34772;-94
2023/01/13 09:27:28;;;;;;;;;;;;;;;7.99;56.13;99461.88;4469524;32;33098;-81
2023/01/13 09:29:56;;;;;;;;;;;;;;;8.31;54.59;99459.28;4467808;32;34541;-92
2023/01/13 09:32:23;;;;;;;;;;;;;;;8.42;55.01;99468.25;4467323;32;35345;-93
2023/01/13 09:34:59;;;;;;;;;;;;;;;8.04;56.02;99461.16;4467704;32;34086;-81
2023/01/13 09:37:37;;;;;;;;;;;;;;;9.01;53.73;99468.81;4468055;32;33472;-85
2023/01/13 09:40:05;;;;;;;;;;;;;;;8.67;54.06;99462.84;4467727;32;34654;-82
2023/01/13 09:45:33;;;;;;;;;;;;;;;8.28;55.22;99450.63;4467561;32;34254;-81
2023/01/13 09:48:03;;;;;;;;;;;;;;;9.14;53.10;99450.19;4466616;32;33201;-82
2023/01/13 09:50:33;;;;;;;;;;;;;;;9.74;51.85;99443.72;4466774;32;33827;-81
2023/01/13 09:53:00;;;;;;;;;;;;;;;7.96;55.34;99438.56;4466223;32;34123;-93
2023/01/13 09:55:36;;;;;;;;;;;;;;;8.14;56.01;99441.62;4467526;32;34299;-81
2023/01/13 09:58:14;;;;;;;;;;;;;;;8.98;53.74;99440.34;4467800;32;33432;-81
2023/01/13 10:00:59;;;;;;;;;;;;;;;8.21;56.39;99438.38;4466473;32;33993;-81
2023/01/13 10:03:28;;;;;;;;;;;;;;;7.48;58.39;99449.22;4467466;32;35490;-92
2023/01/13 10:06:07;;;;;;;;;;;;;;;7.86;57.68;99441.72;4467591;32;35128;-81
2023/01/13 10:08:38;;;;;;;;;;;;;;;7.62;58.11;99452.22;4467408;32;34373;-81
2023/01/13 10:13:58;;;;;;;;;;;;;;;8.95;54.76;99435.97;4465996;32;34380;-83
2023/01/13 10:16:30;;;;;;;;;;;;;;;9.12;54.98;99448.41;4465555;32;34054;-93
2023/01/13 10:19:05;;;;;;;;;;;;;;;8.19;56.86;99445.22;4466126;32;33946;-87
2023/01/13 10:21:51;;;;;;;;;;;;;;;7.95;57.17;99444.53;4466066;32;34208;-81
2023/01/13 10:24:24;;;;;;;;;;;;;;;8.11;57.43;99446.72;4467065;32;34274;-81
2023/01/13 10:27:00;;;;;;;;;;;;;;;7.59;59.08;99458.16;4467227;32;34096;-82
2023/01/13 10:29:28;;;;;;;;;;;;;;;8.69;56.14;99456.00;4465919;32;34281;-81
2023/01/13 10:31:56;;;;;;;;;;;;;;;8.06;57.84;99458.63;4466009;32;34510;-81
2023/01/13 10:34:23;;;;;;;;;;;;;;;9.34;54.45;99452.34;4465844;32;34406;-81
2023/01/13 10:37:09;;;;;;;;;;;;;;;9.66;53.39;99443.56;4467107;32;33925;-92
2023/01/13 10:39:39;;;;;;;;;;;;;;;9.43;53.68;99434.41;4466091;32;33245;-93
2023/01/13 10:42:15;;;;;;;;;;;;;;;8.91;54.25;99433.28;4467185;32;33339;-83
2023/01/13 10:44:49;;;;;;;;;;;;;;;9.37;53.79;99418.78;4464994;32;34463;-81
2023/01/13 10:47:24;;;;;;;;;;;;;;;7.89;57.85;99416.88;4466597;32;34017;-81
2023/01/13 10:50:00;;;;;;;;;;;;;;;8.29;57.10;99426.53;4467092;32;34339;-81
2023/01/13 10:52:29;;;;;;;;;;;;;;;7.31;59.61;99418.66;4466895;32;34243;-81
2023/01/13 10:54:56;;;;;;;;;;;;;;;6.97;61.52;99418.44;4466099;32;34024;-85
2023/01/13 10:57:25;;;;;;;;;;;;;;;7.39;60.29;99406.00;4467978;32;34518;-83
2023/01/13 10:59:53;;;;;;;;;;;;;;;8.89;56.33;99398.72;4466266;32;33479;-81
2023/01/13 11:02:28;;;;;;;;;;;;;;;8.72;56.63;99390.59;4469019;32;34170;-81
2023/01/13 11:04:56;;;;;;;;;;;;;;;7.94;58.15;99392.03;4468462;32;34489;-81
2023/01/13 11:07:42;;;;;;;;;;;;;;;8.52;56.39;99390.09;4468810;32;34041;-86
2023/01/13 11:10:26;;;;;;;;;;;;;;;9.20;54.64;99384.78;4468756;32;32729;-81
2023/01/13 11:13:04;;;;;;;;;;;;;;;8.43;56.61;99380.41;4468738;32;34985;-81
2023/01/13 11:15:44;;;;;;;;;;;;;;;7.95;57.75;99383.44;4467448;32;34437;-89
2023/01/13 11:18:17;;;;;;;;;;;;;;;6.97;60.56;99379.78;4469106;32;34347;-91
2023/01/13 11:20:45;;;;;;;;;;;;;;;7.06;60.76;99374.91;4467443;32;33471;-81
2023/01/13 11:23:16;;;;;;;;;;;;;;;6.61;62.88;99377.81;4467468;32;33511;-94
2023/01/13 11:25:45;;;;;;;;;;;;;;;7.41;61.05;99367.34;4468779;32;33724;-81
2023/01/13 11:28:12;;;;;;;;;;;;;;;7.47;60.11;99359.78;4468439;32;34472;-81
2023/01/13 11:30:43;;;;;;;;;;;;;;;6.83;62.71;99362.22;4468749;32;33583;-81
2023/01/13 11:33:14;;;;;;;;;;;;;;;8.36;58.14;99364.69;4467151;32;34907;-81
2023/01/13 11:35:41;;;;;;;;;;;;;;;8.80;56.85;99352.87;4468582;32;33831;-81
2023/01/13 11:38:23;;;;;;;;;;;;;;;8.36;57.31;99360.41;4468551;32;35085;-84
2023/01/13 11:40:51;;;;;;;;;;;;;;;8.49;57.00;99366.78;4467734;32;32841;-82
2023/01/13 11:43:37;;;;;;;;;;;;;;;8.24;57.47;99365.28;4468344;32;33721;-81
2023/01/13 11:46:07;;;;;;;;;;;;;;;7.82;58.89;99365.91;4467904;32;34292;-81
2023/01/13 11:48:34;;;;;;;;;;;;;;;7.73;60.04;99357.94;4467200;32;33969;-82
2023/01/13 11:51:14;;;;;;;;;;;;;;;8.23;58.66;99353.19;4468038;32;33721;-94
2023/01/13 11:53:48;;;;;;;;;;;;;;;7.28;60.74;99351.53;4484017;32;34321;-85
2023/01/13 11:56:33;;;;;;;;;;;;;;;7.06;62.61;99344.84;4484007;32;34229;-89
2023/01/13 11:59:10;;;;;;;;;;;;;;;8.13;59.23;99338.31;4484149;32;33793;-82
2023/01/13 12:01:43;;;;;;;;;;;;;;;7.90;59.74;99335.12;4484096;32;33608;-81
2023/01/13 12:04:29;;;;;;;;;;;;;;;8.86;57.05;99318.50;4484073;32;34949;-89
2023/01/13 12:07:11;;;;;;;;;;;;;;;8.28;57.85;99326.62;4483944;32;35216;-93
2023/01/13 12:09:48;;;;;;;;;;;;;;;7.43;60.85;99314.09;4484353;32;33974;-89
2023/01/13 12:12:31;;;;;;;;;;;;;;;7.99;59.09;99310.44;4484117;32;33318;-81
2023/01/13 12:15:14;;;;;;;;;;;;;;;8.70;57.05;99289.75;4470187;32;33900;-90
2023/01/13 12:17:53;;;;;;;;;;;;;;;9.31;55.49;99284.09;4468382;32;34072;-81
2023/01/13 12:20:25;;;;;;;;;;;;;;;9.50;54.88;99287.06;4468614;32;34213;-81
2023/01/13 12:22:52;;;;;;;;;;;;;;;9.30;55.27;99277.19;4457666;32;34039;-94
2023/01/13 12:25:22;;;;;;;;;;;;;;;7.36;60.64;99283.81;4469360;32;34099;-81
2023/01/13 12:28:14;;;;;;;;;;;;;;;7.36;60.97;99279.53;4484013;32;34087;-81
2023/01/13 12:30:49;;;;;;;;;;;;;;;7.98;59.45;99274.25;4474779;32;33818;-81
2023/01/13 12:33:19;;;;;;;;;;;;;;;9.08;56.19;99281.06;4483562;32;33176;-93
2023/01/13 12:35:49;;;;;;;;;;;;;;;8.74;56.98;99286.38;4483540;32;34823;-84
2023/01/13 12:38:25;;;;;;;;;;;;;;;8.78;56.97;99283.03;4469568;32;35247;-91
2023/01/13 12:41:04;;;;;;;;;;;;;;;8.12;59.29;99282.34;4483161;32;34444;-81
2023/01/13 12:46:17;;;;;;;;;;;;;;;8.10;59.18;99279.69;4471903;32;34033;-91
2023/01/13 12:48:47;;;;;;;;;;;;;;;7.68;60.82;99277.78;4483741;32;35146;-81
2023/01/13 12:51:24;;;;;;;;;;;;;;;9.19;56.60;99274.38;4469530;32;34935;-81
2023/01/13 12:53:51;;;;;;;;;;;;;;;8.83;57.38;99274.53;4483596;32;34233;-81
2023/01/13 12:56:19;;;;;;;;;;;;;;;8.64;57.46;99279.28;4484047;32;34156;-92
2023/01/13 12:58:46;;;;;;;;;;;;;;;8.34;58.13;99281.16;4469627;32;35194;-81
2023/01/13 13:01:14;;;;;;;;;;;;;;;8.77;57.86;99275.25;4483710;32;34730;-91
2023/01/13 13:03:41;;;;;;;;;;;;;;;8.62;57.97;99275.78;4483647;32;33137;-81
2023/01/13 13:06:11;;;;;;;;;;;;;;;9.10;56.34;99269.03;4469185;32;33722;-81
2023/01/13 13:08:59;;;;;;;;;;;;;;;8.28;59.26;99284.44;4469623;32;34543;-82
2023/01/13 13:14:43;;;;;;;;;;;;;;;9.02;56.80;99274.94;4483708;32;33233;-81
2023/01/13 13:17:28;;;;;;;;;;;;;;;8.68;57.91;99295.75;4473392;32;34871;-90
2023/01/13 13:19:56;;;;;;;;;;;;;;;9.22;56.45;99287.38;4467843;32;34520;-93
2023/01/13 13:22:26;;;;;;;;;;;;;;;9.12;57.33;99286.31;4453686;32;35039;-94
2023/01/13 13:24:53;;;;;;;;;;;;;;;9.13;57.33;99284.59;4468210;32;34061;-81
2023/01/13 13:27:24;;;;;;;;;;;;;;;9.05;57.28;99275.81;4468072;32;34148;-81
2023/01/13 13:29:52;;;;;;;;;;;;;;;7.85;60.87;99282.53;4467780;32;34526;-89
2023/01/13 13:32:34;;;;;;;;;;;;;;;7.64;62.09;99278.53;4453713;32;33870;-80
2023/01/13 13:35:08;;;;;;;;;;;;;;;7.98;61.00;99287.16;4468049;32;33193;-92
2023/01/13 13:49:10;;;;;;;;;;;;;;;9.87;55.26;99300.69;4483281;32;34095;-81
2023/01/13 13:51:40;;;;;;;;;;;;;;;10.32;54.25;99301.47;4482955;32;35132;-83
2023/01/13 13:54:09;;;;;;;;;;;;;;;10.12;54.72;99309.78;4469215;32;34095;-94
2023/01/13 13:56:37;;;;;;;;;;;;;;;9.84;55.44;99308.41;4469069;32;33374;-92
2023/01/13 13:59:07;;;;;;;;;;;;;;;10.07;55.00;99319.16;4469034;32;34977;-81
2023/01/13 14:01:35;;;;;;;;;;;;;;;10.28;54.35;99320.41;4469030;32;34508;-82
2023/01/13 14:04:28;;;;;;;;;;;;;;;9.93;55.21;99313.75;4483069;32;34689;-81
2023/01/13 14:06:57;;;;;;;;;;;;;;;9.83;55.06;99321.34;4482876;31;34148;-81